Latest Weather Observations for Wagga Wagga

IDN60801

Issued at 6:33 am EST Sunday 31 July 2016 (issued every 30 minutes, with the page automatically refreshed every 10 minutes)

About weather observations | Map of weather stations | Latest weather observations for NSW | Other Formats
Station Details ID: 072150 Name: WAGGA WAGGA AMO Lat: -35.16 Lon: 147.46 Height: 212.0 m
Data from the previous 72 hours. | See also: Recent months at Wagga Wagga
Date/Time
EST
Temp
°C
App
Temp
°C
Dew
Point
°C
Rel
Hum
%
Delta-T
°C
Wind Press
QNH
hPa
Press
MSL
hPa
Rain since
9am
mm
Dir  Spd
km/h
Gust
km/h
Spd
kts
Gust
kts
31/06:30am 6.7 3.6 5.6 93 0.5 ENE 11 13 6 7 1018.6 1019.1 0.0
31/06:00am 6.6 4.3 5.7 94 0.4 S 7 9 4 5 1018.6 1019.1 0.0
31/05:30am 6.4 2.5 5.5 94 0.4 E 15 19 8 10 1017.9 1018.4 0.0
31/05:00am 6.2 3.0 5.3 94 0.4 E 11 13 6 7 1018.4 1018.9 0.0
31/04:30am 6.1 2.5 5.2 94 0.4 E 13 15 7 8 1018.0 1018.5 0.0
31/04:00am 6.4 3.3 5.5 94 0.4 ESE 11 13 6 7 1018.6 1019.1 0.0
31/03:30am 6.3 3.2 5.4 94 0.4 ESE 11 13 6 7 1018.8 1019.3 0.0
31/03:00am 6.1 3.4 5.4 95 0.3 ESE 9 9 5 5 1018.9 1019.4 0.0
31/02:30am 5.3 2.4 4.8 97 0.2 ESE 9 11 5 6 1019.5 1019.9 0.0
31/02:00am 4.2 1.2 4.0 99 0.1 SSW 9 11 5 6 1020.1 1020.5 0.0
31/01:30am 5.8 4.7 5.1 95 0.3 CALM 0 0 0 0 1019.8 1020.2 0.0
31/01:00am 6.5 4.2 5.6 94 0.4 ENE 7 9 4 5 1019.7 1020.1 0.0
31/12:30am 6.7 5.3 5.6 93 0.5 ENE 2 7 1 4 1020.0 1020.4 0.0
31/12:00am 6.6 4.5 5.7 94 0.4 ENE 6 7 3 4 1020.4 1020.8 0.0
 
Date/Time
EST
Temp
°C
App
Temp
°C
Dew
Point
°C
Rel
Hum
%
Delta-T
°C
Wind Press
QNH
hPa
Press
MSL
hPa
Rain since
9am
mm
Dir  Spd
km/h
Gust
km/h
Spd
kts
Gust
kts
30/11:30pm 6.2 3.4 5.3 94 0.4 ESE 9 9 5 5 1020.5 1020.9 0.0
30/11:00pm 6.7 3.6 5.4 91 0.6 E 11 11 6 6 1020.1 1020.5 0.0
30/10:30pm 6.6 3.9 5.5 93 0.5 ENE 9 11 5 6 1019.8 1020.2 0.0
30/10:00pm 6.8 3.7 5.5 91 0.6 ENE 11 11 6 6 1019.8 1020.2 0.0
30/09:30pm 7.0 3.9 5.4 89 0.7 E 11 13 6 7 1020.0 1020.4 0.0
30/09:00pm 7.2 4.8 5.4 88 0.8 ESE 7 9 4 5 1020.4 1020.8 0.0
30/08:30pm 7.3 4.6 5.8 90 0.7 ENE 9 11 5 6 1020.2 1020.6 0.0
30/08:00pm 7.5 6.5 5.5 87 0.9 CALM 0 7 0 4 1020.4 1020.8 0.0
30/07:30pm 7.9 5.7 5.5 85 1.1 W 6 7 3 4 1020.5 1020.9 0.0
30/07:00pm 8.7 6.0 5.4 80 1.5 WNW 9 9 5 5 1020.7 1021.1 0.0
30/06:30pm 9.0 6.3 5.5 79 1.6 NW 9 11 5 6 1020.7 1021.1 0.0
30/06:00pm 10.0 7.5 4.9 70 2.3 NNW 7 9 4 5 1020.5 1020.9 0.0
30/05:30pm 10.3 7.8 6.5 77 1.8 N 9 11 5 6 1020.6 1021.0 0.0
30/05:00pm 10.5 7.6 6.5 76 1.9 NNE 11 17 6 9 1020.6 1021.0 0.0
30/04:30pm 10.8 7.7 5.6 70 2.4 N 11 13 6 7 1020.5 1020.9 0.0
30/04:00pm 11.0 8.6 5.4 68 2.6 N 7 11 4 6 1021.0 1021.5 0.0
30/03:30pm 11.0 8.2 5.1 67 2.7 NNE 9 11 5 6 1021.2 1021.7 0.0
30/03:00pm 10.8 7.6 4.9 67 2.7 NNW 11 13 6 7 1021.4 1021.9 0.0
30/02:30pm 10.8 8.1 5.4 69 2.5 N 9 13 5 7 1021.5 1022.0 0.0
30/02:00pm 11.0 8.0 6.1 72 2.3 N 11 15 6 8 1021.6 1022.1 0.0
30/01:30pm 10.9 9.6 5.8 71 2.4 NW 2 9 1 5 1022.0 1022.5 0.0
30/01:00pm 10.5 9.6 6.0 74 2.1 CALM 0 0 0 0 1022.1 1022.6 0.0
30/12:36pm 10.3 9.0 6.2 76 1.9 ENE 2 7 1 4 1022.6 1023.1 0.0
30/12:30pm 10.4 9.6 6.4 76 1.9 CALM 0 6 0 3 1022.8 1023.3 0.0
30/12:00pm 10.2 7.9 5.9 74 2.0 SW 7 7 4 4 1023.0 1023.5 0.0
30/11:37am 10.2 9.3 5.9 74 2.0 CALM 0 0 0 0 1023.6 1024.1 0.0
30/11:30am 10.3 8.6 6.0 75 2.0 NNW 4 7 2 4 1023.7 1024.2 0.0
30/11:09am 10.1 8.4 6.0 76 1.9 NE 4 7 2 4 1023.9 1024.4 0.0
30/11:00am 9.9 9.1 6.3 78 1.7 CALM 0 0 0 0 1024.1 1024.5 0.0
30/10:30am 9.3 8.6 7.0 85 1.1 CALM 0 0 0 0 1024.4 1024.8 0.0
30/10:00am 9.3 8.3 7.2 87 1.0 NE 2 7 1 4 1024.5 1024.9 0.0
30/09:46am 9.5 7.1 7.2 85 1.1 NE 9 11 5 6 1024.4 1024.8 0.0
30/09:44am 9.7 7.4 7.4 85 1.1 NE 9 13 5 7 1024.3 1024.7 0.0
30/09:33am 8.9 6.5 7.2 89 0.8 ENE 9 11 5 6 1024.3 1024.7 0.0
30/09:30am 8.7 6.3 7.2 90 0.7 ENE 9 11 5 6 1024.3 1024.7 0.0
30/09:03am 8.3 5.9 6.8 90 0.7 E 9 11 5 6 1024.6 1025.0 0.0
30/09:00am 8.1 6.0 6.8 91 0.6 E 7 11 4 6 1024.6 1025.0 0.0
30/08:30am 7.6 5.1 6.5 93 0.5 ENE 9 11 5 6 1024.4 1024.8 0.0
30/08:00am 7.1 6.3 6.4 95 0.3 CALM 0 6 0 3 1024.3 1024.7 0.0
30/07:30am 5.7 4.6 5.2 97 0.2 CALM 0 0 0 0 1024.2 1024.6 0.0
30/07:24am 5.6 4.6 5.4 99 0.1 CALM 0 0 0 0 1024.1 1024.5 0.0
30/07:00am 6.1 5.1 5.7 97 0.2 CALM 0 0 0 0 1023.8 1024.3 0.0
30/06:30am 6.5 5.6 6.1 97 0.2 CALM 0 0 0 0 1023.5 1024.0 0.0
30/06:00am 6.6 5.7 6.2 97 0.2 CALM 0 0 0 0 1023.6 1024.1 0.0
30/05:30am 6.4 5.5 6.2 99 0.1 CALM 0 0 0 0 1023.4 1023.9 0.0
30/05:00am 6.7 5.8 6.0 95 0.3 CALM 0 0 0 0 1023.3 1023.8 0.0
30/04:30am 7.7 6.9 6.4 91 0.6 CALM 0 0 0 0 1023.3 1023.8 0.0
30/04:00am 8.2 7.3 6.2 87 0.9 CALM 0 0 0 0 1023.5 1024.0 0.0
30/03:30am 8.3 7.4 5.9 85 1.1 CALM 0 0 0 0 1023.5 1024.0 0.0
30/03:00am 8.1 5.9 6.1 87 0.9 N 7 9 4 5 1023.4 1023.9 0.0
30/02:30am 7.8 5.8 6.3 90 0.7 ENE 6 7 3 4 1023.7 1024.2 0.0
30/02:00am 7.8 5.6 6.3 90 0.7 ENE 7 9 4 5 1023.9 1024.4 0.0
30/01:30am 7.7 6.9 6.4 91 0.6 CALM 0 0 0 0 1023.9 1024.4 0.0
30/01:00am 7.7 6.8 6.2 90 0.7 CALM 0 0 0 0 1024.2 1024.6 0.0
30/12:30am 7.6 6.7 6.1 90 0.7 CALM 0 0 0 0 1024.4 1024.8 0.0
30/12:00am 7.7 6.8 5.9 88 0.8 CALM 0 0 0 0 1024.3 1024.7 0.0
 
Date/Time
EST
Temp
°C
App
Temp
°C
Dew
Point
°C
Rel
Hum
%
Delta-T
°C
Wind Press
QNH
hPa
Press
MSL
hPa
Rain since
9am
mm
Dir  Spd
km/h
Gust
km/h
Spd
kts
Gust
kts
29/11:30pm 7.5 6.6 6.2 91 0.6 CALM 0 2 0 1 1024.5 1024.9 0.0
29/11:00pm 7.1 6.2 6.2 94 0.4 CALM 0 0 0 0 1024.5 1024.9 0.0
29/10:30pm 6.6 4.3 5.7 94 0.4 WSW 7 9 4 5 1024.4 1024.8 0.0
29/10:00pm 6.9 4.6 5.8 93 0.5 W 7 7 4 4 1024.3 1024.7 0.0
29/09:30pm 7.7 5.4 5.7 87 0.9 NW 7 7 4 4 1024.3 1024.7 0.0
29/09:00pm 8.0 5.8 6.0 87 0.9 NNW 7 9 4 5 1024.1 1024.5 0.0
29/08:30pm 8.5 6.4 5.9 84 1.2 NW 6 7 3 4 1023.9 1024.4 0.0
29/08:00pm 8.7 7.3 5.6 81 1.4 W 2 6 1 3 1024.2 1024.6 0.0
29/07:30pm 8.6 6.4 6.0 84 1.2 WSW 7 9 4 5 1024.2 1024.6 0.0
29/07:00pm 8.7 6.4 5.6 81 1.4 W 7 9 4 5 1023.8 1024.3 0.0
29/06:30pm 8.7 6.4 5.9 82 1.3 W 7 7 4 4 1023.5 1024.0 0.0
29/06:00pm 8.7 6.0 5.4 80 1.5 W 9 9 5 5 1023.2 1023.7 0.0
29/05:30pm 9.0 6.1 4.5 73 2.0 W 9 11 5 6 1023.1 1023.6 0.0
29/05:00pm 9.3 5.9 4.1 70 2.3 W 11 15 6 8 1023.1 1023.6 0.0
29/04:30pm 9.4 4.9 4.0 69 2.4 SW 17 24 9 13 1023.1 1023.6 0.0
29/04:00pm 9.5 5.8 4.3 70 2.3 WSW 13 20 7 11 1023.1 1023.6 0.0
29/03:30pm 9.6 5.3 5.2 74 2.0 WSW 17 22 9 12 1023.1 1023.6 0.0
29/03:00pm 9.5 4.6 5.3 75 1.9 WSW 20 28 11 15 1023.1 1023.6 0.0
29/02:30pm 9.8 5.8 4.9 71 2.2 WSW 15 20 8 11 1023.1 1023.6 0.0
29/02:00pm 9.6 4.7 5.2 74 2.0 W 20 26 11 14 1023.1 1023.6 0.0
29/01:30pm 10.3 7.0 4.8 69 2.5 WSW 11 15 6 8 1023.3 1023.8 0.0
29/01:00pm 9.5 5.3 5.6 76 1.8 WSW 17 28 9 15 1023.8 1024.3 0.0
29/12:30pm 10.3 6.1 5.8 73 2.1 W 17 24 9 13 1024.2 1024.6 0.0
29/12:00pm 9.9 5.3 5.5 74 2.0 WSW 19 26 10 14 1024.8 1025.3 0.0
29/11:30am 9.8 5.6 5.9 77 1.8 W 17 20 9 11 1025.1 1025.6 0.0
29/11:00am 9.6 6.0 6.6 81 1.4 W 15 20 8 11 1025.1 1025.6 0.0
29/10:30am 9.1 5.9 6.8 85 1.1 WSW 13 19 7 10 1025.7 1026.2 0.0
29/10:00am 8.7 6.0 7.4 91 0.6 W 11 15 6 8 1025.9 1026.4 0.0
29/09:30am 8.3 6.0 7.5 95 0.4 W 9 11 5 6 1026.1 1026.6 0.0
29/09:00am 7.8 5.9 7.4 97 0.2 NW 7 9 4 5 1025.9 1026.4 0.8
29/08:30am 7.6 5.3 7.4 99 0.1 NW 9 11 5 6 1025.7 1026.2 0.8
29/08:00am 7.4 5.0 7.2 99 0.1 WNW 9 11 5 6 1025.7 1026.2 0.8
29/07:56am 7.4 5.0 7.0 97 0.2 WNW 9 11 5 6 1025.7 1026.2 0.8
29/07:30am 7.1 5.1 6.9 99 0.1 WNW 7 9 4 5 1025.5 1026.0 0.8
29/07:23am 7.0 5.1 6.6 97 0.2 NW 6 7 3 4 1025.5 1026.0 0.8
29/07:10am 7.1 5.0 6.7 97 0.2 NNW 7 9 4 5 1025.4 1025.9 0.8
29/07:00am 7.0 4.6 6.8 99 0.1 NW 9 11 5 6 1025.4 1025.9 0.8
29/06:30am 6.9 4.4 6.7 99 0.1 WNW 9 11 5 6 1025.4 1025.9 0.8
29/06:17am 6.9 4.0 6.7 99 0.1 WNW 11 13 6 7 1025.4 1025.9 0.8
29/06:00am 6.9 4.4 6.7 99 0.1 WNW 9 11 5 6 1025.2 1025.7 0.6
29/05:30am 7.2 4.4 6.8 97 0.2 WNW 11 11 6 6 1025.1 1025.6 0.6
29/05:00am 7.0 4.1 6.6 97 0.2 W 11 13 6 7 1025.1 1025.6 0.6
29/04:30am 7.5 4.8 7.3 99 0.1 WSW 11 15 6 8 1025.0 1025.5 0.6
29/04:00am 7.4 4.6 7.0 97 0.2 W 11 15 6 8 1024.7 1025.1 0.6
29/03:35am 6.9 3.7 6.7 99 0.1 W 13 15 7 8 1024.8 1025.3 0.6
29/03:30am 7.0 4.2 6.8 99 0.1 W 11 13 6 7 1024.8 1025.3 0.6
29/03:23am 7.1 4.7 6.9 99 0.1 W 9 13 5 7 1024.8 1025.3 0.6
29/03:10am 7.3 4.9 7.1 99 0.1 W 9 11 5 6 1024.8 1025.3 0.6
29/03:00am 7.3 4.5 7.1 99 0.1 WNW 11 15 6 8 1024.8 1025.3 0.6
29/02:52am 6.9 4.0 6.7 99 0.1 W 11 13 6 7 1024.9 1025.4 0.6
29/02:46am 7.0 4.2 6.8 99 0.1 WNW 11 13 6 7 1024.9 1025.4 0.6
29/02:33am 7.1 4.7 7.1 100 0.0 WNW 9 9 5 5 1024.9 1025.4 0.6
29/02:30am 7.4 5.0 7.2 99 0.1 WNW 9 11 5 6 1024.9 1025.4 0.6
29/02:19am 7.7 5.4 7.5 99 0.1 W 9 11 5 6 1025.0 1025.5 0.6
29/02:00am 8.0 5.4 7.8 99 0.1 WNW 11 13 6 7 1025.2 1025.7 0.6
29/01:50am 8.1 5.9 7.7 97 0.2 WNW 9 11 5 6 1025.3 1025.8 0.6
29/01:30am 8.1 5.9 7.7 97 0.2 WNW 9 9 5 5 1025.4 1025.9 0.6
29/01:00am 8.1 5.9 7.7 97 0.2 WNW 9 11 5 6 1025.6 1026.1 0.6
29/12:30am 8.1 5.9 7.7 97 0.2 WNW 9 13 5 7 1025.7 1026.2 0.6
29/12:00am 8.2 6.0 7.8 97 0.2 NW 9 11 5 6 1025.8 1026.3 0.6
 
Date/Time
EST
Temp
°C
App
Temp
°C
Dew
Point
°C
Rel
Hum
%
Delta-T
°C
Wind Press
QNH
hPa
Press
MSL
hPa
Rain since
9am
mm
Dir  Spd
km/h
Gust
km/h
Spd
kts
Gust
kts
28/11:48pm 8.2 6.4 7.8 97 0.2 WNW 7 9 4 5 1025.9 1026.4 0.6
28/11:30pm 8.2 6.4 7.8 97 0.2 WNW 7 11 4 6 1026.0 1026.5 0.6
28/11:08pm 8.2 6.0 7.8 97 0.2 W 9 11 5 6 1026.2 1026.7 0.4
28/11:00pm 8.2 6.0 7.8 97 0.2 WNW 9 11 5 6 1026.2 1026.7 0.4
28/10:44pm 8.2 6.0 7.8 97 0.2 NW 9 11 5 6 1026.3 1026.8 0.4
28/10:30pm 8.1 5.9 7.7 97 0.2 NW 9 11 5 6 1026.3 1026.8 0.4
28/10:22pm 8.1 5.9 7.7 97 0.2 NW 9 11 5 6 1026.3 1026.8 0.2
28/10:00pm 8.1 5.5 7.7 97 0.2 WNW 11 11 6 6 1026.5 1027.0 0.2
28/09:30pm 8.2 5.6 7.6 96 0.3 WNW 11 13 6 7 1026.7 1027.2 0.2
28/09:00pm 8.3 5.6 7.5 95 0.4 W 11 13 6 7 1026.8 1027.3 0.2
28/08:30pm 8.2 5.4 7.1 93 0.5 WNW 11 13 6 7 1026.8 1027.3 0.2
28/08:23pm 8.2 5.4 7.1 93 0.5 WNW 11 15 6 8 1026.8 1027.3 0.2
28/08:22pm 8.2 5.4 7.1 93 0.5 WNW 11 15 6 8 1026.8 1027.3 0.2
28/08:10pm 8.4 5.6 7.1 91 0.6 WNW 11 15 6 8 1026.8 1027.3 0.2
28/08:00pm 8.6 6.1 6.7 88 0.9 WNW 9 11 5 6 1026.8 1027.3 0.2
28/07:30pm 8.5 6.6 6.8 89 0.8 NW 6 9 3 5 1026.8 1027.3 0.2
28/07:00pm 8.2 7.5 7.1 93 0.5 CALM 0 0 0 0 1026.6 1027.1 0.2
28/06:30pm 8.0 6.9 7.1 94 0.4 WNW 2 7 1 4 1026.5 1027.0 0.2
28/06:00pm 8.4 6.4 7.1 91 0.6 WNW 7 7 4 4 1026.2 1026.7 0.2
28/05:30pm 8.6 6.2 7.1 90 0.7 W 9 11 5 6 1026.2 1026.7 0.2
28/05:03pm 8.6 5.8 7.1 90 0.7 W 11 13 6 7 1026.1 1026.6 0.2
28/05:00pm 8.6 5.8 7.1 90 0.7 W 11 15 6 8 1026.1 1026.6 0.2
28/04:48pm 8.7 6.0 7.2 90 0.7 W 11 17 6 9 1026.2 1026.7 0.2
28/04:30pm 9.0 5.9 7.3 89 0.8 NW 13 17 7 9 1026.1 1026.6 0.2
28/04:02pm 9.1 6.4 7.2 88 0.9 WNW 11 13 6 7 1026.1 1026.6 0.2
28/04:00pm 9.1 6.3 7.0 87 1.0 WNW 11 13 6 7 1026.1 1026.6 0.2
28/03:30pm 9.2 7.2 6.9 85 1.1 NW 7 11 4 6 1026.1 1026.6 0.0
28/03:09pm 9.1 5.9 6.8 85 1.1 WNW 13 17 7 9 1026.2 1026.7 0.0
28/03:00pm 9.4 6.4 5.9 79 1.6 WNW 11 15 6 8 1026.1 1026.6 0.0
28/02:30pm 9.8 6.3 5.4 74 2.0 WSW 13 17 7 9 1026.1 1026.6 0.0
28/02:00pm 10.4 7.3 5.4 71 2.3 WSW 11 15 6 8 1026.1 1026.6 0.0
28/01:30pm 10.3 6.8 5.5 72 2.2 WSW 13 17 7 9 1026.3 1026.8 0.0
28/01:00pm 10.2 6.5 4.4 67 2.6 W 13 15 7 8 1026.7 1027.2 0.0
28/12:30pm 10.0 7.6 5.4 73 2.1 WSW 7 13 4 7 1026.9 1027.4 0.0
28/12:00pm 10.1 7.3 5.3 72 2.2 SW 9 13 5 7 1027.3 1027.8 0.0
28/11:30am 9.3 6.2 5.6 78 1.7 WSW 11 17 6 9 1027.6 1028.1 0.0
28/11:07am 9.1 5.2 5.4 77 1.7 W 15 19 8 10 1027.9 1028.4 0.0
28/11:00am 9.2 5.4 5.9 80 1.5 WSW 15 19 8 10 1028.0 1028.5 0.0
28/10:30am 8.7 5.2 5.6 81 1.4 W 13 15 7 8 1028.1 1028.6 0.0
28/10:00am 8.0 4.9 5.6 85 1.1 WNW 11 13 6 7 1027.8 1028.3 0.0
28/09:30am 7.7 4.7 5.9 88 0.8 W 11 15 6 8 1027.7 1028.2 0.0
28/09:00am 6.6 4.3 5.5 93 0.5 W 7 9 4 5 1027.5 1028.0 1.0
28/08:30am 6.0 3.6 5.3 95 0.3 WNW 7 9 4 5 1027.3 1027.8 1.0
28/08:00am 5.6 3.1 4.9 95 0.3 WNW 7 7 4 4 1027.0 1027.5 1.0
28/07:30am 5.4 4.2 4.7 95 0.3 CALM 0 7 0 4 1026.6 1027.1 1.0
28/07:00am 5.1 3.5 4.4 95 0.3 NNE 2 7 1 4 1026.2 1026.7 1.0

Other Formats:

Comma delimited format used in spreadsheet applications
http://www.bom.gov.au/fwo/IDN60801/IDN60801.94910.axf

JavaScript Object Notation format (JSON) in row-major order
http://www.bom.gov.au/fwo/IDN60801/IDN60801.94910.json